createdAt,value
2023-03-23T15:58:13.205Z,20.91
2023-03-23T15:58:47.213Z,20.77
2023-03-23T15:59:20.789Z,20.70
2023-03-23T15:59:54.497Z,20.76
2023-03-23T16:00:29.856Z,20.82
2023-03-23T16:01:08.513Z,20.66
2023-03-23T16:01:43.741Z,20.53
2023-03-23T16:02:24.277Z,20.48
2023-03-23T16:03:02.410Z,20.40
2023-03-23T16:03:59.127Z,20.36
2023-03-23T16:04:33.830Z,20.34
2023-03-23T16:05:15.213Z,20.27
2023-03-23T16:05:48.843Z,20.23
2023-03-23T16:06:25.738Z,20.26
2023-03-23T16:07:01.286Z,20.26
2023-03-23T16:07:38.574Z,20.26
2023-03-23T16:08:12.312Z,20.24
2023-03-23T16:08:54.618Z,20.23
2023-03-23T16:09:28.655Z,20.22
2023-03-23T16:10:03.856Z,20.23
2023-03-23T16:10:38.224Z,20.25
2023-03-23T16:11:14.218Z,20.21
2023-03-23T16:11:48.517Z,20.20
2023-03-23T16:12:22.304Z,20.22
2023-03-23T16:12:56.186Z,20.32
2023-03-23T16:13:35.408Z,20.30
2023-03-23T16:14:11.592Z,20.16
2023-03-23T16:14:45.151Z,20.05
2023-03-23T16:15:19.444Z,20.08
2023-03-23T16:15:53.272Z,19.98
2023-03-23T16:16:30.144Z,19.91
2023-03-23T16:17:04.061Z,19.77
2023-03-23T16:17:46.926Z,19.64
2023-03-23T16:18:22.813Z,19.60
2023-03-23T16:18:56.496Z,19.57
2023-03-23T16:19:33.330Z,19.52
2023-03-23T16:20:14.161Z,19.51
2023-03-23T16:20:51.119Z,19.53
2023-03-23T16:21:24.923Z,19.49
2023-03-23T16:21:58.506Z,19.50
2023-03-23T16:22:32.073Z,19.48
2023-03-23T16:23:08.442Z,19.47
2023-03-23T16:23:44.871Z,19.47
2023-03-23T16:24:19.356Z,19.47
2023-03-23T16:24:55.392Z,19.46
2023-03-23T16:25:35.224Z,19.46
2023-03-23T16:26:08.950Z,19.46
2023-03-23T16:26:42.832Z,19.42
2023-03-23T16:27:21.715Z,19.44
2023-03-23T16:27:55.288Z,19.43
2023-03-23T16:28:28.847Z,19.41
2023-03-23T16:29:13.877Z,19.39
2023-03-23T16:30:03.040Z,19.32
2023-03-23T16:30:38.519Z,19.29
2023-03-23T16:31:14.614Z,19.25
2023-03-23T16:31:48.209Z,19.26
2023-03-23T16:32:21.759Z,19.24
2023-03-23T16:32:57.627Z,19.21
2023-03-23T16:33:31.686Z,19.17
2023-03-23T16:34:05.211Z,19.17
2023-03-23T16:34:39.171Z,19.12
2023-03-23T16:35:14.146Z,19.09
2023-03-23T16:35:48.082Z,19.08
2023-03-23T16:36:22.015Z,19.09
2023-03-23T16:36:56.440Z,19.00
2023-03-23T16:37:34.022Z,18.96
2023-03-23T16:38:09.246Z,18.92
2023-03-23T16:38:49.126Z,18.89
2023-03-23T16:39:24.755Z,18.88
2023-03-23T16:39:58.221Z,18.84
2023-03-23T16:40:31.992Z,18.81
2023-03-23T16:41:05.809Z,18.80
2023-03-23T16:41:41.308Z,18.78
2023-03-23T16:42:17.952Z,18.77
2023-03-23T16:42:51.754Z,18.76
2023-03-23T16:43:25.552Z,18.75
2023-03-23T16:44:01.499Z,18.73
2023-03-23T16:44:34.982Z,18.69
2023-03-23T16:45:10.032Z,18.65
2023-03-23T16:46:02.690Z,18.62
2023-03-23T16:46:36.640Z,18.56
2023-03-23T16:47:10.204Z,18.53
2023-03-23T16:47:44.637Z,18.53
2023-03-23T16:48:18.245Z,18.51
2023-03-23T16:48:51.790Z,18.49
2023-03-23T16:49:26.579Z,18.48
2023-03-23T16:50:00.194Z,18.45
2023-03-23T16:50:37.510Z,18.43
2023-03-23T16:51:11.189Z,18.39
2023-03-23T16:51:44.811Z,18.37
2023-03-23T16:52:19.161Z,18.35
2023-03-23T16:52:53.009Z,18.33
2023-03-23T16:53:26.595Z,18.31
2023-03-23T16:54:00.045Z,18.31
2023-03-23T16:54:33.469Z,18.29
2023-03-23T16:55:08.583Z,18.28
2023-03-23T16:55:48.643Z,18.23
2023-03-23T16:56:51.363Z,18.17
2023-03-23T16:58:13.031Z,17.96
2023-03-23T16:59:07.199Z,17.89
2023-03-23T16:59:46.656Z,17.86
2023-03-23T17:00:47.122Z,17.84
2023-03-23T17:01:32.112Z,17.79
2023-03-23T17:02:05.822Z,17.78
2023-03-23T17:02:42.521Z,17.77
2023-03-23T17:03:17.813Z,17.75
2023-03-23T17:03:54.581Z,17.72
2023-03-23T17:04:32.156Z,17.64
2023-03-23T17:05:06.153Z,17.69
2023-03-23T17:05:40.523Z,17.69
2023-03-23T17:06:14.297Z,17.63
2023-03-23T17:06:48.147Z,17.60
2023-03-23T17:07:21.752Z,17.57
2023-03-23T17:07:56.176Z,17.55
2023-03-23T17:08:29.768Z,17.50
2023-03-23T17:09:03.515Z,17.53
2023-03-23T17:09:37.528Z,17.52
2023-03-23T17:10:11.902Z,17.51
2023-03-23T17:10:46.198Z,17.49
2023-03-23T17:11:22.099Z,17.48
2023-03-23T17:11:55.954Z,17.47
2023-03-23T17:12:31.969Z,17.44
2023-03-23T17:13:05.564Z,17.43
2023-03-23T17:13:39.144Z,17.41
2023-03-23T17:14:14.912Z,17.38
2023-03-23T17:14:54.211Z,17.36
2023-03-23T17:15:27.817Z,17.33
2023-03-23T17:16:01.304Z,17.31
2023-03-23T17:16:34.878Z,17.30
2023-03-23T17:17:11.772Z,17.28
2023-03-23T17:17:45.596Z,17.26
2023-03-23T17:18:19.041Z,17.24
2023-03-23T17:18:52.559Z,17.24
2023-03-23T17:19:26.583Z,17.23
2023-03-23T17:20:00.222Z,17.20
2023-03-23T17:20:35.392Z,17.19
2023-03-23T17:21:08.883Z,17.17
2023-03-23T17:21:43.091Z,17.16
2023-03-23T17:22:17.063Z,17.13
2023-03-23T17:22:51.433Z,17.12
2023-03-23T17:23:25.088Z,17.10
2023-03-23T17:23:59.292Z,17.02
2023-03-23T17:24:33.314Z,17.05
2023-03-23T17:25:09.473Z,17.05
2023-03-23T17:25:45.667Z,17.02
2023-03-23T17:26:19.589Z,16.99
2023-03-23T17:26:54.693Z,16.98
2023-03-23T17:28:07.221Z,16.89
2023-03-23T17:28:41.329Z,16.86
2023-03-23T17:29:15.098Z,16.85
2023-03-23T17:29:48.829Z,16.84
2023-03-23T17:30:22.567Z,16.83
2023-03-23T17:30:56.400Z,16.81
2023-03-23T17:31:30.076Z,16.78
2023-03-23T17:32:03.660Z,16.74
2023-03-23T17:32:37.707Z,16.73
2023-03-23T17:33:12.634Z,16.71
2023-03-23T17:33:46.332Z,16.69
2023-03-23T17:34:19.959Z,16.68
2023-03-23T17:34:54.110Z,16.66
2023-03-23T17:35:27.649Z,16.63
2023-03-23T17:36:01.230Z,16.62
2023-03-23T17:36:34.932Z,16.60
2023-03-23T17:37:11.046Z,16.59
2023-03-23T17:37:44.870Z,16.57
2023-03-23T17:38:18.667Z,16.56
2023-03-23T17:38:52.331Z,16.55
2023-03-23T17:39:26.244Z,16.55
2023-03-23T17:39:59.897Z,16.54
2023-03-23T17:40:33.403Z,16.54
2023-03-23T17:41:08.702Z,16.53
2023-03-23T17:41:42.599Z,16.53
2023-03-23T17:42:16.397Z,16.52
2023-03-23T17:42:50.017Z,16.51
2023-03-23T17:43:23.487Z,16.50
2023-03-23T17:43:57.085Z,16.48
2023-03-23T17:44:39.851Z,16.47
2023-03-23T17:45:13.379Z,16.48
2023-03-23T17:45:47.427Z,16.45
2023-03-23T17:46:21.315Z,16.45
2023-03-23T17:46:56.672Z,16.44
2023-03-23T17:47:30.384Z,16.43
2023-03-23T17:48:08.184Z,16.41
2023-03-23T17:48:42.468Z,16.41
2023-03-23T17:49:16.066Z,16.40
2023-03-23T17:49:49.739Z,16.39
2023-03-23T17:50:23.604Z,16.37
2023-03-23T17:51:02.463Z,16.36
2023-03-23T17:51:36.273Z,16.35
2023-03-23T17:52:10.028Z,16.33
2023-03-23T17:52:43.917Z,16.31
2023-03-23T17:53:19.074Z,16.30
2023-03-23T17:53:52.589Z,16.28
2023-03-23T17:54:26.844Z,16.27
2023-03-23T17:55:00.583Z,16.26
2023-03-23T17:55:34.124Z,16.24
2023-03-23T17:56:08.302Z,16.21
2023-03-23T17:56:41.918Z,16.19
2023-03-23T17:57:15.867Z,16.19
2023-03-23T17:57:49.446Z,16.18
2023-03-23T17:58:25.365Z,16.18
2023-03-23T17:58:58.924Z,16.16
2023-03-23T17:59:32.456Z,16.16
2023-03-23T18:00:09.490Z,16.16
2023-03-23T18:00:42.897Z,16.13
2023-03-23T18:01:16.859Z,16.12
2023-03-23T18:01:50.660Z,16.12
2023-03-23T18:02:24.401Z,16.10
2023-03-23T18:02:58.269Z,16.08
2023-03-23T18:03:32.431Z,16.06
2023-03-23T18:04:06.429Z,16.04
2023-03-23T18:04:48.788Z,16.05
2023-03-23T18:05:28.089Z,16.01
2023-03-23T18:06:05.331Z,16.00
2023-03-23T18:06:38.906Z,15.98
2023-03-23T18:07:14.181Z,15.97
2023-03-23T18:07:48.060Z,15.96
2023-03-23T18:08:22.014Z,15.94
2023-03-23T18:08:55.547Z,15.93
2023-03-23T18:09:29.038Z,15.93
2023-03-23T18:10:02.632Z,15.91
2023-03-23T18:10:38.935Z,15.91
2023-03-23T18:11:12.571Z,15.90
2023-03-23T18:11:46.046Z,15.90
2023-03-23T18:12:19.640Z,15.89
2023-03-23T18:12:53.677Z,15.87
2023-03-23T18:13:29.165Z,15.87
2023-03-23T18:14:03.244Z,15.86
2023-03-23T18:14:39.216Z,15.85
2023-03-23T18:15:13.323Z,15.84
2023-03-23T18:15:47.146Z,15.82
2023-03-23T18:16:24.493Z,15.81
2023-03-23T18:16:58.539Z,15.79
2023-03-23T18:17:35.565Z,15.78
2023-03-23T18:18:10.551Z,15.77
2023-03-23T18:18:46.719Z,15.76
2023-03-23T18:19:37.159Z,15.67
2023-03-23T18:20:25.760Z,15.69
2023-03-23T18:21:16.896Z,15.67
2023-03-23T18:22:16.701Z,15.61
2023-03-23T18:23:00.292Z,15.58
2023-03-23T18:23:59.576Z,15.56
2023-03-23T18:25:00.165Z,15.49
2023-03-23T18:25:44.397Z,15.51
2023-03-23T18:26:28.377Z,15.51
2023-03-23T18:27:09.120Z,15.49
2023-03-23T18:28:22.015Z,15.47
2023-03-23T18:29:06.157Z,15.46
2023-03-23T18:30:09.911Z,15.44
2023-03-23T18:31:14.023Z,15.37
2023-03-23T18:32:11.956Z,15.33
2023-03-23T18:32:53.832Z,15.29
2023-03-23T18:33:36.887Z,15.19
2023-03-23T18:34:14.725Z,15.25
2023-03-23T18:35:32.216Z,15.22
2023-03-23T18:36:23.068Z,15.14
2023-03-23T18:37:06.727Z,15.13
2023-03-23T18:37:51.825Z,15.02
2023-03-23T18:38:34.239Z,15.10
2023-03-23T18:39:13.847Z,15.08
2023-03-23T18:39:59.486Z,15.07
2023-03-23T18:40:34.224Z,15.06
2023-03-23T18:41:13.934Z,15.01
2023-03-23T18:41:57.792Z,14.99
2023-03-23T18:42:34.314Z,14.96
2023-03-23T18:43:11.724Z,14.98
2023-03-23T18:43:46.464Z,14.97
2023-03-23T18:44:26.298Z,14.98
2023-03-23T18:45:02.262Z,14.98
2023-03-23T18:45:57.627Z,14.97
2023-03-23T18:46:39.239Z,14.93
2023-03-23T18:47:18.792Z,14.92
2023-03-23T18:48:01.562Z,14.89
2023-03-23T18:48:49.321Z,14.80
2023-03-23T18:49:32.178Z,14.82
2023-03-23T18:50:12.407Z,14.83
2023-03-23T18:51:01.309Z,14.82
2023-03-23T18:51:40.433Z,14.82
2023-03-23T18:52:24.580Z,14.79
2023-03-23T18:53:03.899Z,14.79
2023-03-23T18:53:49.693Z,14.77
2023-03-23T18:54:26.720Z,14.71
2023-03-23T18:55:04.588Z,14.76
2023-03-23T18:55:38.910Z,14.75
2023-03-23T18:56:19.869Z,14.75
2023-03-23T18:57:00.401Z,14.74
2023-03-23T18:57:46.571Z,14.66
2023-03-23T18:58:28.315Z,14.69
2023-03-23T18:59:06.675Z,14.68
2023-03-23T18:59:43.310Z,14.70
2023-03-23T19:00:24.389Z,14.69
2023-03-23T19:01:03.323Z,14.70
2023-03-23T19:01:40.114Z,14.71
2023-03-23T19:02:14.740Z,14.70
2023-03-23T19:02:51.915Z,14.70
2023-03-23T19:03:26.322Z,14.64
2023-03-23T19:04:00.455Z,14.70
2023-03-23T19:04:34.565Z,14.61
2023-03-23T19:05:13.661Z,14.70
2023-03-23T19:05:48.720Z,14.70
2023-03-23T19:06:25.119Z,14.69
2023-03-23T19:07:03.677Z,14.69
2023-03-23T19:07:38.695Z,14.67
2023-03-23T19:08:15.562Z,14.67
2023-03-23T19:08:50.367Z,14.65
2023-03-23T19:09:25.844Z,14.65
2023-03-23T19:09:59.907Z,14.66
2023-03-23T19:10:37.873Z,14.66
2023-03-23T19:11:11.716Z,14.63
2023-03-23T19:11:47.420Z,14.61
2023-03-23T19:12:22.576Z,14.63
2023-03-23T19:12:56.622Z,14.63
2023-03-23T19:13:31.647Z,14.64
2023-03-23T19:14:07.004Z,14.64
2023-03-23T19:14:43.999Z,14.63
2023-03-23T19:15:18.081Z,14.62
2023-03-23T19:15:53.221Z,14.62
2023-03-23T19:16:27.044Z,14.57
2023-03-23T19:17:00.865Z,14.59
2023-03-23T19:17:36.641Z,14.61
2023-03-23T19:18:10.400Z,14.61
2023-03-23T19:18:44.039Z,14.57
2023-03-23T19:19:17.605Z,14.56
2023-03-23T19:19:52.539Z,14.54
2023-03-23T19:20:58.366Z,14.51
2023-03-23T19:21:24.910Z,14.51
2023-03-23T19:22:00.141Z,14.49
2023-03-23T19:22:33.869Z,14.49
2023-03-23T19:23:08.158Z,14.48
2023-03-23T19:23:41.975Z,14.44
2023-03-23T19:24:18.173Z,14.41
2023-03-23T19:24:52.548Z,14.39
2023-03-23T19:25:27.053Z,14.37
2023-03-23T19:26:00.778Z,14.37
2023-03-23T19:28:38.453Z,14.29
2023-03-23T19:29:23.026Z,14.24
2023-03-23T19:29:44.183Z,14.20
2023-03-23T19:30:27.545Z,14.19
2023-03-23T19:31:12.191Z,14.19
2023-03-23T19:31:47.424Z,14.18
2023-03-23T19:32:27.596Z,14.18
2023-03-23T19:33:08.888Z,14.18
2023-03-23T19:33:43.928Z,14.19
2023-03-23T19:34:24.425Z,14.20
2023-03-23T19:34:59.201Z,14.20
2023-03-23T19:35:36.053Z,14.20
2023-03-23T19:36:13.205Z,14.21
2023-03-23T19:36:54.205Z,14.20
2023-03-23T19:37:34.374Z,14.21
2023-03-23T19:38:13.557Z,14.16
2023-03-23T19:38:58.351Z,14.18
2023-03-23T19:39:37.164Z,14.12
2023-03-23T19:40:31.671Z,14.17
2023-03-23T19:41:32.328Z,14.15
2023-03-23T19:42:35.555Z,14.06
2023-03-23T19:43:13.995Z,14.07
2023-03-23T19:43:52.335Z,14.05
2023-03-23T19:44:38.801Z,14.06
2023-03-23T19:45:12.706Z,14.05
2023-03-23T19:45:48.026Z,14.06
2023-03-23T19:46:31.467Z,14.05
2023-03-23T19:47:24.992Z,14.04
2023-03-23T19:48:54.826Z,14.02
2023-03-23T19:49:34.072Z,14.03
2023-03-23T19:50:24.684Z,14.00
2023-03-23T19:51:02.404Z,14.01
2023-03-23T19:51:38.536Z,14.02
2023-03-23T19:52:22.653Z,14.03
2023-03-23T19:53:01.846Z,14.03
2023-03-23T19:53:37.469Z,13.95
2023-03-23T19:54:13.613Z,14.05
2023-03-23T19:54:47.772Z,14.07
2023-03-23T19:55:22.689Z,14.07
2023-03-23T19:56:03.639Z,14.08
2023-03-23T19:56:43.902Z,14.08
2023-03-23T19:57:27.418Z,14.08
2023-03-23T19:58:07.471Z,14.07
2023-03-23T19:58:41.774Z,14.05
2023-03-23T19:59:18.832Z,14.04
2023-03-23T19:59:53.465Z,14.07
2023-03-23T20:00:36.124Z,14.08
2023-03-23T20:01:14.101Z,14.05
2023-03-23T20:01:53.037Z,14.07
2023-03-23T20:02:26.959Z,14.01
2023-03-23T20:03:04.623Z,14.05
2023-03-23T20:03:41.341Z,14.06
2023-03-23T20:04:19.045Z,14.05
2023-03-23T20:04:52.683Z,14.04
2023-03-23T20:05:53.419Z,14.05
2023-03-23T20:06:29.785Z,14.03
2023-03-23T20:07:13.160Z,14.01
2023-03-23T20:07:51.522Z,13.97
2023-03-23T20:09:12.150Z,13.96
2023-03-23T20:09:48.861Z,13.95
2023-03-23T20:10:24.667Z,13.97
2023-03-23T20:11:09.048Z,13.95
2023-03-23T20:11:50.199Z,13.98
2023-03-23T20:12:26.167Z,13.97
2023-03-23T20:13:10.166Z,13.92
2023-03-23T20:13:57.000Z,13.92
2023-03-23T20:14:40.936Z,13.90
2023-03-23T20:15:15.200Z,13.83
2023-03-23T20:16:04.892Z,13.91
2023-03-23T20:16:42.657Z,13.87
2023-03-23T20:17:21.924Z,13.89
2023-03-23T20:18:09.786Z,13.88
2023-03-23T20:18:59.970Z,13.86
2023-03-23T20:19:36.468Z,13.86
2023-03-23T20:20:11.204Z,13.87
2023-03-23T20:20:44.933Z,13.86
2023-03-23T20:21:22.340Z,13.85
2023-03-23T20:21:58.478Z,13.83
2023-03-23T20:22:32.279Z,13.82
2023-03-23T20:23:08.129Z,13.79
2023-03-23T20:23:43.421Z,13.81
2023-03-23T20:24:17.326Z,13.78
2023-03-23T20:24:51.796Z,13.77
2023-03-23T20:25:26.388Z,13.77
2023-03-23T20:26:12.346Z,13.75
2023-03-23T20:26:47.629Z,13.69
2023-03-23T20:27:26.769Z,13.68
2023-03-23T20:28:06.534Z,13.69
2023-03-23T20:28:42.747Z,13.63
2023-03-23T20:29:16.528Z,13.71
2023-03-23T20:29:53.917Z,13.72
2023-03-23T20:30:27.394Z,13.74
2023-03-23T20:31:16.829Z,13.76
2023-03-23T20:31:58.103Z,13.74
2023-03-23T20:32:34.984Z,13.74
2023-03-23T20:33:09.652Z,13.74
2023-03-23T20:33:44.806Z,13.75
2023-03-23T20:34:29.430Z,13.66
2023-03-23T20:35:09.522Z,13.76
2023-03-23T20:35:43.425Z,13.76
2023-03-23T20:36:20.185Z,13.76
2023-03-23T20:36:54.862Z,13.76
2023-03-23T20:37:31.337Z,13.76
2023-03-23T20:38:05.987Z,13.76
2023-03-23T20:38:41.906Z,13.77
2023-03-23T20:39:21.666Z,13.77
2023-03-23T20:39:55.657Z,13.76
2023-03-23T20:40:29.720Z,13.76
2023-03-23T20:41:06.435Z,13.76
2023-03-23T20:41:40.570Z,13.75
2023-03-23T20:42:14.906Z,13.76
2023-03-23T20:42:49.286Z,13.75
2023-03-23T20:43:29.378Z,13.74
2023-03-23T20:44:04.345Z,13.72
2023-03-23T20:44:39.700Z,13.71
2023-03-23T20:45:14.363Z,13.70
2023-03-23T20:45:48.021Z,13.69
2023-03-23T20:46:26.015Z,13.67
2023-03-23T20:46:59.918Z,13.67
2023-03-23T20:47:33.541Z,13.65
2023-03-23T20:48:07.121Z,13.64
2023-03-23T20:48:41.389Z,13.65
2023-03-23T20:49:16.128Z,13.65
2023-03-23T20:49:53.180Z,13.64
2023-03-23T20:50:27.540Z,13.65
2023-03-23T20:51:03.474Z,13.65
2023-03-23T20:51:37.859Z,13.65
2023-03-23T20:52:12.601Z,13.63
2023-03-23T20:52:46.444Z,13.63
2023-03-23T20:53:20.640Z,13.63
2023-03-23T20:53:54.986Z,13.63
2023-03-23T20:54:28.540Z,13.64
2023-03-23T20:55:02.787Z,13.62
2023-03-23T20:55:36.621Z,13.63
2023-03-23T20:56:11.061Z,13.63
2023-03-23T20:56:45.250Z,13.63
2023-03-23T20:57:19.486Z,13.62
2023-03-23T20:57:52.958Z,13.60
2023-03-23T20:58:28.128Z,13.59
2023-03-23T20:59:02.726Z,13.61
2023-03-23T20:59:36.620Z,13.61
2023-03-23T21:00:15.496Z,13.61
2023-03-23T21:00:51.588Z,13.60
2023-03-23T21:01:26.379Z,13.60
2023-03-23T21:02:00.011Z,13.61
2023-03-23T21:02:34.491Z,13.61
2023-03-23T21:03:11.602Z,13.60
2023-03-23T21:03:45.759Z,13.52
2023-03-23T21:04:23.139Z,13.61
2023-03-23T21:04:58.369Z,13.60
2023-03-23T21:05:32.027Z,13.60
2023-03-23T21:06:09.411Z,13.60
2023-03-23T21:06:44.505Z,13.58
2023-03-23T21:07:18.408Z,13.58
2023-03-23T21:07:52.933Z,13.50
2023-03-23T21:08:26.814Z,13.59
2023-03-23T21:09:00.561Z,13.59
2023-03-23T21:09:35.058Z,13.59
2023-03-23T21:10:08.896Z,13.57
2023-03-23T21:10:43.651Z,13.59
2023-03-23T21:11:20.037Z,13.59
2023-03-23T21:11:54.216Z,13.59
2023-03-23T21:12:27.980Z,13.59
2023-03-23T21:13:01.512Z,13.56
2023-03-23T21:13:35.632Z,13.53
2023-03-23T21:14:10.150Z,13.55
2023-03-23T21:14:45.170Z,13.52
2023-03-23T21:15:18.918Z,13.54
2023-03-23T21:15:53.615Z,13.54
2023-03-23T21:16:27.588Z,13.53
2023-03-23T21:17:01.894Z,13.51
2023-03-23T21:17:35.936Z,13.46
2023-03-23T21:18:11.024Z,13.47
2023-03-23T21:18:45.318Z,13.48
2023-03-23T21:19:19.786Z,13.43
2023-03-23T21:19:53.814Z,13.45
2023-03-23T21:20:27.534Z,13.45
2023-03-23T21:21:01.756Z,13.43
2023-03-23T21:21:35.550Z,13.43
2023-03-23T21:22:09.994Z,13.43
2023-03-23T21:22:43.534Z,13.43
2023-03-23T21:23:19.748Z,13.41
2023-03-23T21:23:53.698Z,13.39
2023-03-23T21:24:29.926Z,13.38
2023-03-23T21:25:03.961Z,13.36
2023-03-23T21:25:44.805Z,13.37
2023-03-23T21:26:21.028Z,13.31
2023-03-23T21:26:56.952Z,13.35
2023-03-23T21:27:31.101Z,13.33
2023-03-23T21:28:07.183Z,13.32
2023-03-23T21:28:40.919Z,13.32
2023-03-23T21:29:15.775Z,13.32
2023-03-23T21:29:49.405Z,13.31
2023-03-23T21:30:23.246Z,13.30
2023-03-23T21:31:03.762Z,13.30
2023-03-23T21:31:38.314Z,13.29
2023-03-23T21:32:12.082Z,13.28
2023-03-23T21:32:45.840Z,13.28
2023-03-23T21:33:20.302Z,13.29
2023-03-23T21:33:53.929Z,13.27
2023-03-23T21:34:28.074Z,13.28
2023-03-23T21:35:03.091Z,13.28
2023-03-23T21:35:37.034Z,13.26
2023-03-23T21:36:13.330Z,13.26
2023-03-23T21:36:46.944Z,13.25
2023-03-23T21:37:21.006Z,13.25
2023-03-23T21:37:54.505Z,13.24
2023-03-23T21:38:29.100Z,13.22
2023-03-23T21:39:04.711Z,13.23
2023-03-23T21:39:38.397Z,13.20
2023-03-23T21:40:14.940Z,13.17
2023-03-23T21:40:48.942Z,13.16
2023-03-23T21:41:23.201Z,13.14
2023-03-23T21:41:56.767Z,13.11
2023-03-23T21:42:30.695Z,13.10
2023-03-23T21:43:04.538Z,13.09
2023-03-23T21:43:40.986Z,13.09
2023-03-23T21:44:15.455Z,13.08
2023-03-23T21:44:51.490Z,13.06
2023-03-23T21:45:25.893Z,13.06
2023-03-23T21:46:03.172Z,13.05
2023-03-23T21:46:40.890Z,13.04
2023-03-23T21:47:14.497Z,13.04
2023-03-23T21:47:51.805Z,13.04
2023-03-23T21:48:28.046Z,13.04
2023-03-23T21:49:01.686Z,13.02
2023-03-23T21:49:36.090Z,12.97
2023-03-23T21:50:15.471Z,13.00
2023-03-23T21:50:49.635Z,12.99
2023-03-23T21:51:25.571Z,12.98
2023-03-23T21:51:59.221Z,12.98
2023-03-23T21:52:33.647Z,12.96
2023-03-23T21:53:07.278Z,12.94
2023-03-23T21:53:44.603Z,12.96
2023-03-23T21:54:18.288Z,12.96
2023-03-23T21:54:54.524Z,12.96
2023-03-23T21:55:29.849Z,12.96
2023-03-23T21:56:05.533Z,12.96
2023-03-23T21:56:39.834Z,12.97
2023-03-23T21:57:13.550Z,12.96
2023-03-23T21:57:47.420Z,12.96
2023-03-23T21:58:24.416Z,12.97
2023-03-23T21:58:58.113Z,12.96
2023-03-23T21:59:31.696Z,12.97
2023-03-23T22:00:08.521Z,12.96
2023-03-23T22:00:42.336Z,12.98
2023-03-23T22:01:19.161Z,12.99
2023-03-23T22:01:54.079Z,12.98
2023-03-23T22:02:27.712Z,13.00
2023-03-23T22:03:02.957Z,13.00
2023-03-23T22:03:37.733Z,13.00
2023-03-23T22:04:11.768Z,13.00
2023-03-23T22:04:45.618Z,13.00
2023-03-23T22:05:20.529Z,12.94
2023-03-23T22:05:54.868Z,13.01
2023-03-23T22:06:29.165Z,13.02
2023-03-23T22:07:02.733Z,13.03
2023-03-23T22:07:39.284Z,12.94
2023-03-23T22:08:12.963Z,13.04
2023-03-23T22:08:47.377Z,13.05
2023-03-23T22:09:21.060Z,12.99
2023-03-23T22:09:54.869Z,13.07
2023-03-23T22:10:28.599Z,13.07
2023-03-23T22:11:06.176Z,13.07
2023-03-23T22:11:42.014Z,13.07
2023-03-23T22:12:15.910Z,13.07
2023-03-23T22:12:53.687Z,13.08
2023-03-23T22:13:32.734Z,13.08
2023-03-23T22:14:07.415Z,13.06
2023-03-23T22:14:41.105Z,13.04
2023-03-23T22:15:15.497Z,13.06
2023-03-23T22:15:51.191Z,13.06
2023-03-23T22:16:25.740Z,13.06
2023-03-23T22:17:00.725Z,13.07
2023-03-23T22:17:38.161Z,13.05
2023-03-23T22:18:11.972Z,13.05
2023-03-23T22:18:46.937Z,13.03
2023-03-23T22:19:21.400Z,13.05
2023-03-23T22:19:55.153Z,13.06
2023-03-23T22:20:29.758Z,13.05
2023-03-23T22:21:05.466Z,13.05
2023-03-23T22:21:39.406Z,13.04
2023-03-23T22:22:13.488Z,13.03
2023-03-23T22:22:53.772Z,13.03
2023-03-23T22:23:28.464Z,13.02
2023-03-23T22:24:04.870Z,13.00
2023-03-23T22:24:38.736Z,12.99
2023-03-23T22:25:13.646Z,13.00
2023-03-23T22:25:47.484Z,13.00
2023-03-23T22:26:21.396Z,12.98
2023-03-23T22:26:55.017Z,12.98
2023-03-23T22:27:28.683Z,12.95
2023-03-23T22:28:04.865Z,12.94
2023-03-23T22:28:39.707Z,12.93
2023-03-23T22:29:15.146Z,12.92
2023-03-23T22:29:48.827Z,12.91
2023-03-23T22:30:23.777Z,12.91
2023-03-23T22:31:06.665Z,12.74
2023-03-23T22:31:42.120Z,12.88
2023-03-23T22:32:18.879Z,12.86
2023-03-23T22:32:52.618Z,12.85
2023-03-23T22:33:26.322Z,12.84
2023-03-23T22:34:01.867Z,12.84
2023-03-23T22:34:35.764Z,12.83
2023-03-23T22:35:12.697Z,12.80
2023-03-23T22:35:48.012Z,12.79
2023-03-23T22:36:24.129Z,12.79
2023-03-23T22:36:57.872Z,12.78
2023-03-23T22:37:31.665Z,12.75
2023-03-23T22:38:05.477Z,12.75
2023-03-23T22:38:42.769Z,12.73
2023-03-23T22:39:17.010Z,12.72
2023-03-23T22:39:50.794Z,12.72
2023-03-23T22:40:24.489Z,12.71
2023-03-23T22:40:59.710Z,12.69
2023-03-23T22:41:37.009Z,12.69
2023-03-23T22:42:12.360Z,12.67
2023-03-23T22:42:47.224Z,12.65
2023-03-23T22:43:20.897Z,12.64
2023-03-23T22:43:54.650Z,12.64
2023-03-23T22:44:28.817Z,12.63
2023-03-23T22:45:03.147Z,12.62
2023-03-23T22:45:37.236Z,12.60
2023-03-23T22:46:10.953Z,12.59
2023-03-23T22:46:45.429Z,12.59
2023-03-23T22:47:19.076Z,12.57
2023-03-23T22:47:53.121Z,12.56
2023-03-23T22:48:28.003Z,12.55
2023-03-23T22:49:02.077Z,12.54
2023-03-23T22:49:35.912Z,12.52
2023-03-23T22:50:10.929Z,12.51
2023-03-23T22:50:47.376Z,12.51
2023-03-23T22:51:24.240Z,12.48
2023-03-23T22:51:58.006Z,12.47
2023-03-23T22:52:31.797Z,12.45
2023-03-23T22:53:05.537Z,12.45
2023-03-23T22:53:39.923Z,12.44
2023-03-23T22:54:13.784Z,12.43
2023-03-23T22:54:48.312Z,12.42
2023-03-23T22:55:22.044Z,12.37
2023-03-23T22:55:57.807Z,12.40
2023-03-23T22:56:31.984Z,12.39
2023-03-23T22:57:05.627Z,12.36
2023-03-23T22:57:39.363Z,12.36
2023-03-23T22:58:13.798Z,12.35
2023-03-23T22:58:47.526Z,12.33
2023-03-23T22:59:21.731Z,12.33
2023-03-23T22:59:55.690Z,12.32
2023-03-23T23:00:29.409Z,12.31
2023-03-23T23:01:13.870Z,12.31
2023-03-23T23:01:48.406Z,12.30
2023-03-23T23:02:24.945Z,12.29
2023-03-23T23:02:59.094Z,12.27
2023-03-23T23:03:34.264Z,12.27
2023-03-23T23:04:08.132Z,12.25
2023-03-23T23:04:41.994Z,12.27
2023-03-23T23:05:16.053Z,12.26
2023-03-23T23:05:51.769Z,12.24
2023-03-23T23:06:25.959Z,12.24
2023-03-23T23:07:12.080Z,12.23
2023-03-23T23:07:46.399Z,12.21
2023-03-23T23:08:20.814Z,12.20
2023-03-23T23:08:54.527Z,12.20
2023-03-23T23:09:28.226Z,12.20
2023-03-23T23:10:01.875Z,12.19
2023-03-23T23:10:36.194Z,12.09
2023-03-23T23:11:12.884Z,12.18
2023-03-23T23:11:46.882Z,12.17
2023-03-23T23:12:21.919Z,12.17
2023-03-23T23:12:55.572Z,12.15
2023-03-23T23:13:31.853Z,12.15
2023-03-23T23:14:06.803Z,12.13
2023-03-23T23:14:43.697Z,12.13
2023-03-23T23:15:17.360Z,12.11
2023-03-23T23:15:53.763Z,12.10
2023-03-23T23:16:27.938Z,12.09
2023-03-23T23:17:01.680Z,12.09
2023-03-23T23:17:38.781Z,12.07
2023-03-23T23:18:12.726Z,12.08
2023-03-23T23:18:50.250Z,12.07
2023-03-23T23:19:24.475Z,12.06
2023-03-23T23:19:59.904Z,12.06
2023-03-23T23:20:34.730Z,12.05
2023-03-23T23:21:11.369Z,12.06
2023-03-23T23:21:44.911Z,12.05
2023-03-23T23:22:19.540Z,12.05
2023-03-23T23:22:53.208Z,12.05
2023-03-23T23:23:27.897Z,12.04
2023-03-23T23:24:01.670Z,12.03
2023-03-23T23:24:35.439Z,12.03
2023-03-23T23:25:10.468Z,12.04
2023-03-23T23:25:44.424Z,12.03
2023-03-23T23:26:19.667Z,12.03
2023-03-23T23:26:53.760Z,12.03
2023-03-23T23:27:27.369Z,12.00
2023-03-23T23:28:06.781Z,12.11
2023-03-23T23:28:42.573Z,12.10
2023-03-23T23:29:16.092Z,12.08
2023-03-23T23:29:49.634Z,12.08
2023-03-23T23:30:23.289Z,12.11
2023-03-23T23:30:56.913Z,12.15
2023-03-23T23:31:33.875Z,12.15
2023-03-23T23:32:07.456Z,12.15
2023-03-23T23:32:43.071Z,12.14
2023-03-23T23:33:16.757Z,12.14
2023-03-23T23:33:50.579Z,12.14
2023-03-23T23:34:25.654Z,12.15
2023-03-23T23:34:59.450Z,12.15
2023-03-23T23:35:34.892Z,12.16
2023-03-23T23:36:09.216Z,12.13
2023-03-23T23:36:43.060Z,12.16
2023-03-23T23:37:16.668Z,12.15
2023-03-23T23:37:50.769Z,12.16
2023-03-23T23:38:26.960Z,12.15
2023-03-23T23:39:02.112Z,12.15
2023-03-23T23:39:38.568Z,12.14
2023-03-23T23:40:15.434Z,12.13
2023-03-23T23:40:49.197Z,12.11
2023-03-23T23:41:23.839Z,12.13
2023-03-23T23:41:57.397Z,12.15
2023-03-23T23:42:31.056Z,12.02
2023-03-23T23:43:05.701Z,12.14
2023-03-23T23:43:39.436Z,12.10
2023-03-23T23:44:13.204Z,12.09
2023-03-23T23:44:47.162Z,12.07
2023-03-23T23:45:21.659Z,12.05
2023-03-23T23:45:55.350Z,12.03
2023-03-23T23:46:30.824Z,11.99
2023-03-23T23:47:06.087Z,11.99
2023-03-23T23:47:40.824Z,11.98
2023-03-23T23:48:14.371Z,11.97
2023-03-23T23:48:48.220Z,11.96
2023-03-23T23:49:28.917Z,11.97
2023-03-23T23:50:03.435Z,11.92
2023-03-23T23:50:37.366Z,11.85
2023-03-23T23:51:15.437Z,11.84
2023-03-23T23:51:49.287Z,11.84
2023-03-23T23:52:23.174Z,11.86
2023-03-23T23:52:58.876Z,11.87